sensor_id;sensor_type;location;lat;lon;timestamp;P1;durP1;ratioP1;P2;durP2;ratioP2
71038;SDS011;58692;43.212;27.908;2023-05-01T00:00:48;17.77;;;9.00;;
71038;SDS011;58692;43.212;27.908;2023-05-01T00:03:13;18.13;;;9.07;;
71038;SDS011;58692;43.212;27.908;2023-05-01T00:05:39;17.23;;;9.50;;
71038;SDS011;58692;43.212;27.908;2023-05-01T00:08:05;19.85;;;10.23;;
71038;SDS011;58692;43.212;27.908;2023-05-01T00:10:33;17.33;;;9.53;;
71038;SDS011;58692;43.212;27.908;2023-05-01T00:12:59;17.73;;;8.98;;
71038;SDS011;58692;43.212;27.908;2023-05-01T00:15:24;17.67;;;9.67;;
71038;SDS011;58692;43.212;27.908;2023-05-01T00:17:51;20.50;;;9.60;;
71038;SDS011;58692;43.212;27.908;2023-05-01T00:20:18;18.40;;;9.53;;
71038;SDS011;58692;43.212;27.908;2023-05-01T00:22:43;15.02;;;9.27;;
71038;SDS011;58692;43.212;27.908;2023-05-01T00:25:09;26.40;;;15.40;;
71038;SDS011;58692;43.212;27.908;2023-05-01T00:27:34;36.63;;;21.60;;
71038;SDS011;58692;43.212;27.908;2023-05-01T00:30:00;43.57;;;26.17;;
71038;SDS011;58692;43.212;27.908;2023-05-01T00:32:26;39.70;;;23.02;;
71038;SDS011;58692;43.212;27.908;2023-05-01T00:34:51;44.67;;;24.83;;
71038;SDS011;58692;43.212;27.908;2023-05-01T00:37:17;45.40;;;24.30;;
71038;SDS011;58692;43.212;27.908;2023-05-01T00:39:42;55.50;;;31.97;;
71038;SDS011;58692;43.212;27.908;2023-05-01T00:42:08;52.40;;;32.90;;
71038;SDS011;58692;43.212;27.908;2023-05-01T00:44:33;61.33;;;38.93;;
71038;SDS011;58692;43.212;27.908;2023-05-01T00:46:59;55.20;;;33.10;;
71038;SDS011;58692;43.212;27.908;2023-05-01T00:49:26;53.63;;;31.95;;
71038;SDS011;58692;43.212;27.908;2023-05-01T00:51:52;54.70;;;33.60;;
71038;SDS011;58692;43.212;27.908;2023-05-01T00:54:18;53.93;;;33.17;;
71038;SDS011;58692;43.212;27.908;2023-05-01T00:56:45;48.58;;;30.08;;
71038;SDS011;58692;43.212;27.908;2023-05-01T00:59:12;47.72;;;29.25;;
71038;SDS011;58692;43.212;27.908;2023-05-01T01:01:40;39.28;;;24.10;;
71038;SDS011;58692;43.212;27.908;2023-05-01T01:04:05;36.83;;;22.60;;
71038;SDS011;58692;43.212;27.908;2023-05-01T01:06:33;32.13;;;20.60;;
71038;SDS011;58692;43.212;27.908;2023-05-01T01:09:22;34.28;;;22.23;;
71038;SDS011;58692;43.212;27.908;2023-05-01T01:14:26;33.50;;;22.10;;
71038;SDS011;58692;43.212;27.908;2023-05-01T01:16:58;30.88;;;18.73;;
71038;SDS011;58692;43.212;27.908;2023-05-01T01:19:35;23.20;;;14.98;;
71038;SDS011;58692;43.212;27.908;2023-05-01T01:22:23;20.05;;;11.52;;
71038;SDS011;58692;43.212;27.908;2023-05-01T01:36:29;17.77;;;10.25;;
71038;SDS011;58692;43.212;27.908;2023-05-01T01:41:48;22.88;;;11.02;;
71038;SDS011;58692;43.212;27.908;2023-05-01T01:44:22;19.25;;;10.68;;
71038;SDS011;58692;43.212;27.908;2023-05-01T01:46:54;19.35;;;11.02;;
71038;SDS011;58692;43.212;27.908;2023-05-01T01:49:23;21.00;;;11.38;;
71038;SDS011;58692;43.212;27.908;2023-05-01T01:51:51;21.17;;;10.87;;
71038;SDS011;58692;43.212;27.908;2023-05-01T01:54:21;20.33;;;10.85;;
71038;SDS011;58692;43.212;27.908;2023-05-01T01:56:51;20.48;;;11.13;;
71038;SDS011;58692;43.212;27.908;2023-05-01T01:59:19;25.67;;;11.80;;
71038;SDS011;58692;43.212;27.908;2023-05-01T02:01:47;23.98;;;11.52;;
71038;SDS011;58692;43.212;27.908;2023-05-01T02:04:15;20.57;;;12.17;;
71038;SDS011;58692;43.212;27.908;2023-05-01T02:06:42;22.25;;;11.63;;
71038;SDS011;58692;43.212;27.908;2023-05-01T02:09:09;22.35;;;12.25;;
71038;SDS011;58692;43.212;27.908;2023-05-01T02:11:36;21.88;;;12.52;;
71038;SDS011;58692;43.212;27.908;2023-05-01T02:14:02;22.33;;;11.95;;
71038;SDS011;58692;43.212;27.908;2023-05-01T02:16:30;22.73;;;12.83;;
71038;SDS011;58692;43.212;27.908;2023-05-01T02:18:58;27.45;;;14.40;;
71038;SDS011;58692;43.212;27.908;2023-05-01T02:21:25;27.88;;;13.45;;
71038;SDS011;58692;43.212;27.908;2023-05-01T02:23:52;21.73;;;13.23;;
71038;SDS011;58692;43.212;27.908;2023-05-01T02:26:19;25.38;;;13.95;;
71038;SDS011;58692;43.212;27.908;2023-05-01T02:28:50;21.97;;;12.10;;
71038;SDS011;58692;43.212;27.908;2023-05-01T02:31:15;22.00;;;12.57;;
71038;SDS011;58692;43.212;27.908;2023-05-01T02:33:41;23.83;;;13.20;;
71038;SDS011;58692;43.212;27.908;2023-05-01T02:36:06;24.03;;;12.40;;
71038;SDS011;58692;43.212;27.908;2023-05-01T02:38:32;22.13;;;13.10;;
71038;SDS011;58692;43.212;27.908;2023-05-01T02:40:58;18.93;;;9.23;;
71038;SDS011;58692;43.212;27.908;2023-05-01T02:43:25;13.43;;;5.68;;
71038;SDS011;58692;43.212;27.908;2023-05-01T02:45:54;13.70;;;5.63;;
71038;SDS011;58692;43.212;27.908;2023-05-01T02:48:24;13.35;;;6.32;;
71038;SDS011;58692;43.212;27.908;2023-05-01T02:50:52;14.77;;;5.90;;
71038;SDS011;58692;43.212;27.908;2023-05-01T02:53:20;11.93;;;5.32;;
71038;SDS011;58692;43.212;27.908;2023-05-01T02:55:46;10.48;;;3.90;;
71038;SDS011;58692;43.212;27.908;2023-05-01T02:58:14;10.45;;;4.05;;
71038;SDS011;58692;43.212;27.908;2023-05-01T03:00:40;11.55;;;4.00;;
71038;SDS011;58692;43.212;27.908;2023-05-01T03:03:06;9.13;;;3.60;;
71038;SDS011;58692;43.212;27.908;2023-05-01T03:05:31;7.90;;;3.28;;
71038;SDS011;58692;43.212;27.908;2023-05-01T03:07:57;10.17;;;3.80;;
71038;SDS011;58692;43.212;27.908;2023-05-01T03:10:22;9.87;;;3.70;;
71038;SDS011;58692;43.212;27.908;2023-05-01T03:12:48;20.50;;;11.30;;
71038;SDS011;58692;43.212;27.908;2023-05-01T03:15:13;29.57;;;15.43;;
71038;SDS011;58692;43.212;27.908;2023-05-01T03:17:39;26.83;;;15.27;;
71038;SDS011;58692;43.212;27.908;2023-05-01T03:20:04;32.90;;;14.50;;
71038;SDS011;58692;43.212;27.908;2023-05-01T03:22:30;21.90;;;12.73;;
71038;SDS011;58692;43.212;27.908;2023-05-01T03:24:57;25.45;;;12.98;;
71038;SDS011;58692;43.212;27.908;2023-05-01T03:27:23;26.70;;;12.43;;
71038;SDS011;58692;43.212;27.908;2023-05-01T03:29:48;24.80;;;12.43;;
71038;SDS011;58692;43.212;27.908;2023-05-01T03:32:14;21.10;;;12.60;;
71038;SDS011;58692;43.212;27.908;2023-05-01T03:34:41;22.10;;;9.97;;
71038;SDS011;58692;43.212;27.908;2023-05-01T03:37:07;22.25;;;10.68;;
71038;SDS011;58692;43.212;27.908;2023-05-01T03:39:32;19.27;;;10.30;;
71038;SDS011;58692;43.212;27.908;2023-05-01T03:41:58;19.30;;;10.48;;
71038;SDS011;58692;43.212;27.908;2023-05-01T03:44:24;18.33;;;10.53;;
71038;SDS011;58692;43.212;27.908;2023-05-01T03:46:49;17.77;;;10.57;;
71038;SDS011;58692;43.212;27.908;2023-05-01T03:49:15;16.50;;;10.13;;
71038;SDS011;58692;43.212;27.908;2023-05-01T03:51:41;18.77;;;10.25;;
71038;SDS011;58692;43.212;27.908;2023-05-01T03:54:06;21.73;;;11.47;;
71038;SDS011;58692;43.212;27.908;2023-05-01T03:56:32;26.83;;;11.73;;
71038;SDS011;58692;43.212;27.908;2023-05-01T03:58:59;21.00;;;12.20;;
71038;SDS011;58692;43.212;27.908;2023-05-01T04:01:25;22.25;;;13.00;;
71038;SDS011;58692;43.212;27.908;2023-05-01T04:03:51;21.70;;;13.20;;
71038;SDS011;58692;43.212;27.908;2023-05-01T04:06:17;27.90;;;14.02;;
71038;SDS011;58692;43.212;27.908;2023-05-01T04:08:43;25.67;;;14.27;;
71038;SDS011;58692;43.212;27.908;2023-05-01T04:11:08;22.73;;;13.70;;
71038;SDS011;58692;43.212;27.908;2023-05-01T04:13:34;22.80;;;13.70;;
71038;SDS011;58692;43.212;27.908;2023-05-01T04:16:00;26.67;;;13.60;;
71038;SDS011;58692;43.212;27.908;2023-05-01T04:18:26;23.23;;;12.95;;
71038;SDS011;58692;43.212;27.908;2023-05-01T04:20:51;23.50;;;12.80;;
71038;SDS011;58692;43.212;27.908;2023-05-01T04:23:17;26.80;;;13.23;;
71038;SDS011;58692;43.212;27.908;2023-05-01T04:25:42;23.80;;;13.77;;
71038;SDS011;58692;43.212;27.908;2023-05-01T04:28:09;23.97;;;13.73;;
71038;SDS011;58692;43.212;27.908;2023-05-01T04:30:36;26.13;;;13.77;;
71038;SDS011;58692;43.212;27.908;2023-05-01T04:33:01;24.33;;;14.37;;
71038;SDS011;58692;43.212;27.908;2023-05-01T04:35:27;23.03;;;15.30;;
71038;SDS011;58692;43.212;27.908;2023-05-01T04:37:53;22.75;;;14.55;;
71038;SDS011;58692;43.212;27.908;2023-05-01T04:40:18;24.73;;;14.10;;
71038;SDS011;58692;43.212;27.908;2023-05-01T04:42:44;26.57;;;15.27;;
71038;SDS011;58692;43.212;27.908;2023-05-01T04:45:10;30.70;;;15.68;;
71038;SDS011;58692;43.212;27.908;2023-05-01T04:47:35;25.20;;;15.37;;
71038;SDS011;58692;43.212;27.908;2023-05-01T04:50:01;27.67;;;16.45;;
71038;SDS011;58692;43.212;27.908;2023-05-01T04:52:26;29.23;;;17.70;;
71038;SDS011;58692;43.212;27.908;2023-05-01T04:54:52;28.33;;;16.43;;
71038;SDS011;58692;43.212;27.908;2023-05-01T04:57:18;27.67;;;16.35;;
71038;SDS011;58692;43.212;27.908;2023-05-01T04:59:43;25.73;;;15.70;;
71038;SDS011;58692;43.212;27.908;2023-05-01T05:02:09;27.10;;;16.33;;
71038;SDS011;58692;43.212;27.908;2023-05-01T05:04:35;28.10;;;15.73;;
71038;SDS011;58692;43.212;27.908;2023-05-01T05:07:00;26.92;;;15.77;;
71038;SDS011;58692;43.212;27.908;2023-05-01T05:09:26;29.30;;;16.50;;
71038;SDS011;58692;43.212;27.908;2023-05-01T05:11:51;29.07;;;16.33;;
71038;SDS011;58692;43.212;27.908;2023-05-01T05:14:17;30.67;;;15.68;;
71038;SDS011;58692;43.212;27.908;2023-05-01T05:16:42;28.80;;;15.50;;
71038;SDS011;58692;43.212;27.908;2023-05-01T05:19:08;22.70;;;14.43;;
71038;SDS011;58692;43.212;27.908;2023-05-01T05:21:33;27.60;;;15.05;;
71038;SDS011;58692;43.212;27.908;2023-05-01T05:23:59;25.33;;;13.90;;
71038;SDS011;58692;43.212;27.908;2023-05-01T05:26:25;24.55;;;13.48;;
71038;SDS011;58692;43.212;27.908;2023-05-01T05:28:51;25.67;;;13.67;;
71038;SDS011;58692;43.212;27.908;2023-05-01T05:31:16;23.30;;;14.43;;
71038;SDS011;58692;43.212;27.908;2023-05-01T05:33:42;22.57;;;12.13;;
71038;SDS011;58692;43.212;27.908;2023-05-01T05:36:08;19.67;;;12.13;;
71038;SDS011;58692;43.212;27.908;2023-05-01T05:38:34;23.47;;;12.07;;
71038;SDS011;58692;43.212;27.908;2023-05-01T05:40:59;20.00;;;13.00;;
71038;SDS011;58692;43.212;27.908;2023-05-01T05:43:25;20.00;;;12.57;;
71038;SDS011;58692;43.212;27.908;2023-05-01T05:45:55;21.57;;;12.90;;
71038;SDS011;58692;43.212;27.908;2023-05-01T05:48:21;20.63;;;13.93;;
71038;SDS011;58692;43.212;27.908;2023-05-01T05:50:46;25.70;;;14.73;;
71038;SDS011;58692;43.212;27.908;2023-05-01T05:53:15;24.45;;;13.77;;
71038;SDS011;58692;43.212;27.908;2023-05-01T05:55:40;24.40;;;14.43;;
71038;SDS011;58692;43.212;27.908;2023-05-01T05:58:07;22.73;;;13.70;;
71038;SDS011;58692;43.212;27.908;2023-05-01T06:00:33;22.85;;;14.38;;
71038;SDS011;58692;43.212;27.908;2023-05-01T06:02:58;22.77;;;14.70;;
71038;SDS011;58692;43.212;27.908;2023-05-01T06:05:23;26.23;;;15.68;;
71038;SDS011;58692;43.212;27.908;2023-05-01T06:07:49;28.30;;;15.60;;
71038;SDS011;58692;43.212;27.908;2023-05-01T06:10:15;25.33;;;15.17;;
71038;SDS011;58692;43.212;27.908;2023-05-01T06:12:41;25.15;;;14.55;;
71038;SDS011;58692;43.212;27.908;2023-05-01T06:15:06;25.55;;;14.40;;
71038;SDS011;58692;43.212;27.908;2023-05-01T06:17:32;26.90;;;14.60;;
71038;SDS011;58692;43.212;27.908;2023-05-01T06:19:59;22.55;;;13.18;;
71038;SDS011;58692;43.212;27.908;2023-05-01T06:22:25;16.83;;;11.02;;
71038;SDS011;58692;43.212;27.908;2023-05-01T06:24:51;20.20;;;10.60;;
71038;SDS011;58692;43.212;27.908;2023-05-01T06:27:16;16.23;;;9.43;;
71038;SDS011;58692;43.212;27.908;2023-05-01T06:29:42;16.70;;;9.57;;
71038;SDS011;58692;43.212;27.908;2023-05-01T06:32:08;15.90;;;9.57;;
71038;SDS011;58692;43.212;27.908;2023-05-01T06:34:34;14.20;;;8.90;;
71038;SDS011;58692;43.212;27.908;2023-05-01T06:36:59;12.53;;;8.00;;
71038;SDS011;58692;43.212;27.908;2023-05-01T06:39:25;11.75;;;6.60;;
71038;SDS011;58692;43.212;27.908;2023-05-01T06:41:50;15.37;;;5.90;;
71038;SDS011;58692;43.212;27.908;2023-05-01T06:44:16;8.73;;;4.33;;
71038;SDS011;58692;43.212;27.908;2023-05-01T06:46:41;9.30;;;4.40;;
71038;SDS011;58692;43.212;27.908;2023-05-01T06:49:07;8.20;;;3.93;;
71038;SDS011;58692;43.212;27.908;2023-05-01T06:51:33;8.15;;;3.78;;
71038;SDS011;58692;43.212;27.908;2023-05-01T06:53:58;8.00;;;3.70;;
71038;SDS011;58692;43.212;27.908;2023-05-01T06:56:24;8.13;;;3.77;;
71038;SDS011;58692;43.212;27.908;2023-05-01T06:58:49;8.82;;;3.55;;
71038;SDS011;58692;43.212;27.908;2023-05-01T07:01:15;7.40;;;3.50;;
71038;SDS011;58692;43.212;27.908;2023-05-01T07:03:41;8.55;;;3.70;;
71038;SDS011;58692;43.212;27.908;2023-05-01T07:06:07;7.30;;;3.53;;
71038;SDS011;58692;43.212;27.908;2023-05-01T07:08:33;7.37;;;3.77;;
71038;SDS011;58692;43.212;27.908;2023-05-01T07:10:58;8.40;;;2.63;;
71038;SDS011;58692;43.212;27.908;2023-05-01T07:13:24;8.57;;;2.85;;
71038;SDS011;58692;43.212;27.908;2023-05-01T07:15:50;8.18;;;3.45;;
71038;SDS011;58692;43.212;27.908;2023-05-01T07:18:15;5.47;;;2.60;;
71038;SDS011;58692;43.212;27.908;2023-05-01T07:20:41;8.50;;;2.70;;
71038;SDS011;58692;43.212;27.908;2023-05-01T07:23:07;6.88;;;2.85;;
71038;SDS011;58692;43.212;27.908;2023-05-01T07:25:34;7.57;;;2.72;;
71038;SDS011;58692;43.212;27.908;2023-05-01T07:28:01;8.80;;;4.03;;
71038;SDS011;58692;43.212;27.908;2023-05-01T07:30:29;6.32;;;2.60;;
71038;SDS011;58692;43.212;27.908;2023-05-01T07:32:55;8.10;;;2.30;;
71038;SDS011;58692;43.212;27.908;2023-05-01T07:35:22;5.95;;;2.40;;
71038;SDS011;58692;43.212;27.908;2023-05-01T07:37:48;6.63;;;2.30;;
71038;SDS011;58692;43.212;27.908;2023-05-01T07:40:16;6.50;;;2.20;;
71038;SDS011;58692;43.212;27.908;2023-05-01T07:42:42;6.23;;;2.20;;
71038;SDS011;58692;43.212;27.908;2023-05-01T07:45:07;6.82;;;2.33;;
71038;SDS011;58692;43.212;27.908;2023-05-01T07:47:33;7.33;;;2.17;;
71038;SDS011;58692;43.212;27.908;2023-05-01T07:49:59;7.80;;;2.30;;
71038;SDS011;58692;43.212;27.908;2023-05-01T07:52:25;6.40;;;2.30;;
71038;SDS011;58692;43.212;27.908;2023-05-01T07:54:51;6.27;;;2.00;;
71038;SDS011;58692;43.212;27.908;2023-05-01T07:57:17;4.65;;;2.00;;
71038;SDS011;58692;43.212;27.908;2023-05-01T07:59:43;7.33;;;2.40;;
71038;SDS011;58692;43.212;27.908;2023-05-01T08:02:08;6.40;;;2.03;;
71038;SDS011;58692;43.212;27.908;2023-05-01T08:04:34;6.23;;;1.80;;
71038;SDS011;58692;43.212;27.908;2023-05-01T08:06:59;7.13;;;1.77;;
71038;SDS011;58692;43.212;27.908;2023-05-01T08:09:25;5.03;;;1.75;;
71038;SDS011;58692;43.212;27.908;2023-05-01T08:11:50;5.77;;;2.10;;
71038;SDS011;58692;43.212;27.908;2023-05-01T08:14:16;5.03;;;2.00;;
71038;SDS011;58692;43.212;27.908;2023-05-01T08:16:42;6.60;;;2.25;;
71038;SDS011;58692;43.212;27.908;2023-05-01T08:19:08;5.88;;;1.90;;
71038;SDS011;58692;43.212;27.908;2023-05-01T08:21:34;6.47;;;1.93;;
71038;SDS011;58692;43.212;27.908;2023-05-01T08:23:59;6.80;;;2.20;;
71038;SDS011;58692;43.212;27.908;2023-05-01T08:26:25;4.70;;;2.17;;
71038;SDS011;58692;43.212;27.908;2023-05-01T08:28:50;5.45;;;1.85;;
71038;SDS011;58692;43.212;27.908;2023-05-01T08:31:16;5.77;;;1.93;;
71038;SDS011;58692;43.212;27.908;2023-05-01T08:33:43;4.78;;;1.90;;
71038;SDS011;58692;43.212;27.908;2023-05-01T08:36:09;7.23;;;2.20;;
71038;SDS011;58692;43.212;27.908;2023-05-01T08:38:35;5.38;;;1.90;;
71038;SDS011;58692;43.212;27.908;2023-05-01T08:41:01;3.92;;;1.90;;
71038;SDS011;58692;43.212;27.908;2023-05-01T08:43:30;7.22;;;2.13;;
71038;SDS011;58692;43.212;27.908;2023-05-01T08:45:57;7.07;;;2.22;;
71038;SDS011;58692;43.212;27.908;2023-05-01T08:48:25;5.63;;;1.73;;
71038;SDS011;58692;43.212;27.908;2023-05-01T08:50:53;6.75;;;2.30;;
71038;SDS011;58692;43.212;27.908;2023-05-01T08:53:21;6.35;;;2.15;;
71038;SDS011;58692;43.212;27.908;2023-05-01T08:55:48;4.38;;;2.05;;
71038;SDS011;58692;43.212;27.908;2023-05-01T08:58:16;9.73;;;2.17;;
71038;SDS011;58692;43.212;27.908;2023-05-01T09:00:44;7.17;;;2.40;;
71038;SDS011;58692;43.212;27.908;2023-05-01T09:03:11;7.40;;;1.92;;
71038;SDS011;58692;43.212;27.908;2023-05-01T09:05:38;5.60;;;1.98;;
71038;SDS011;58692;43.212;27.908;2023-05-01T09:08:03;7.43;;;2.10;;
71038;SDS011;58692;43.212;27.908;2023-05-01T09:10:29;6.73;;;2.40;;
71038;SDS011;58692;43.212;27.908;2023-05-01T09:12:59;12.35;;;2.50;;
71038;SDS011;58692;43.212;27.908;2023-05-01T09:15:26;5.43;;;2.17;;
71038;SDS011;58692;43.212;27.908;2023-05-01T09:17:53;6.00;;;2.07;;
71038;SDS011;58692;43.212;27.908;2023-05-01T09:20:19;6.75;;;2.13;;
71038;SDS011;58692;43.212;27.908;2023-05-01T09:22:45;6.35;;;2.00;;
71038;SDS011;58692;43.212;27.908;2023-05-01T09:25:11;6.07;;;2.13;;
71038;SDS011;58692;43.212;27.908;2023-05-01T09:27:36;4.23;;;2.00;;
71038;SDS011;58692;43.212;27.908;2023-05-01T09:30:02;7.00;;;2.22;;
71038;SDS011;58692;43.212;27.908;2023-05-01T09:32:30;7.03;;;2.60;;
71038;SDS011;58692;43.212;27.908;2023-05-01T09:37:38;6.38;;;2.28;;
71038;SDS011;58692;43.212;27.908;2023-05-01T09:40:06;5.82;;;2.30;;
71038;SDS011;58692;43.212;27.908;2023-05-01T09:42:36;7.28;;;2.20;;
71038;SDS011;58692;43.212;27.908;2023-05-01T09:45:02;6.93;;;2.43;;
71038;SDS011;58692;43.212;27.908;2023-05-01T09:47:30;6.03;;;2.30;;
71038;SDS011;58692;43.212;27.908;2023-05-01T09:49:56;5.43;;;2.33;;
71038;SDS011;58692;43.212;27.908;2023-05-01T09:52:25;8.43;;;2.30;;
71038;SDS011;58692;43.212;27.908;2023-05-01T09:57:40;6.32;;;2.60;;
71038;SDS011;58692;43.212;27.908;2023-05-01T10:00:07;5.00;;;2.00;;
71038;SDS011;58692;43.212;27.908;2023-05-01T10:02:34;5.32;;;2.25;;
71038;SDS011;58692;43.212;27.908;2023-05-01T10:05:00;6.85;;;2.25;;
71038;SDS011;58692;43.212;27.908;2023-05-01T10:07:25;5.13;;;2.27;;
71038;SDS011;58692;43.212;27.908;2023-05-01T10:09:52;5.67;;;2.27;;
71038;SDS011;58692;43.212;27.908;2023-05-01T10:12:25;6.10;;;2.50;;
71038;SDS011;58692;43.212;27.908;2023-05-01T10:14:52;4.80;;;2.25;;
71038;SDS011;58692;43.212;27.908;2023-05-01T10:17:19;4.38;;;2.20;;
71038;SDS011;58692;43.212;27.908;2023-05-01T10:19:46;4.30;;;2.08;;
71038;SDS011;58692;43.212;27.908;2023-05-01T10:22:13;9.05;;;2.50;;
71038;SDS011;58692;43.212;27.908;2023-05-01T10:24:39;4.73;;;2.43;;
71038;SDS011;58692;43.212;27.908;2023-05-01T10:27:05;5.88;;;2.42;;
71038;SDS011;58692;43.212;27.908;2023-05-01T10:29:33;6.80;;;2.65;;
71038;SDS011;58692;43.212;27.908;2023-05-01T10:32:02;5.88;;;2.63;;
71038;SDS011;58692;43.212;27.908;2023-05-01T10:34:29;5.70;;;2.35;;
71038;SDS011;58692;43.212;27.908;2023-05-01T10:36:58;5.87;;;2.63;;
71038;SDS011;58692;43.212;27.908;2023-05-01T10:39:28;6.35;;;2.35;;
71038;SDS011;58692;43.212;27.908;2023-05-01T10:44:38;4.85;;;2.03;;
71038;SDS011;58692;43.212;27.908;2023-05-01T10:50:07;7.90;;;2.43;;
71038;SDS011;58692;43.212;27.908;2023-05-01T10:55:31;7.10;;;2.35;;
71038;SDS011;58692;43.212;27.908;2023-05-01T10:57:57;6.55;;;2.10;;
71038;SDS011;58692;43.212;27.908;2023-05-01T11:00:22;6.73;;;2.20;;
71038;SDS011;58692;43.212;27.908;2023-05-01T11:02:48;4.37;;;2.17;;
71038;SDS011;58692;43.212;27.908;2023-05-01T11:05:16;6.10;;;2.67;;
71038;SDS011;58692;43.212;27.908;2023-05-01T11:07:42;7.47;;;2.75;;
71038;SDS011;58692;43.212;27.908;2023-05-01T11:12:50;6.03;;;2.40;;
71038;SDS011;58692;43.212;27.908;2023-05-01T11:17:58;5.53;;;2.40;;
71038;SDS011;58692;43.212;27.908;2023-05-01T11:22:52;5.32;;;2.35;;
71038;SDS011;58692;43.212;27.908;2023-05-01T11:27:47;4.93;;;2.33;;
71038;SDS011;58692;43.212;27.908;2023-05-01T11:30:14;6.83;;;2.53;;
71038;SDS011;58692;43.212;27.908;2023-05-01T11:32:44;7.72;;;2.47;;
71038;SDS011;58692;43.212;27.908;2023-05-01T11:37:52;4.40;;;2.15;;
71038;SDS011;58692;43.212;27.908;2023-05-01T11:40:22;5.47;;;2.30;;
71038;SDS011;58692;43.212;27.908;2023-05-01T11:43:00;4.03;;;2.00;;
71038;SDS011;58692;43.212;27.908;2023-05-01T11:45:27;7.57;;;2.65;;
71038;SDS011;58692;43.212;27.908;2023-05-01T11:47:53;5.22;;;2.10;;
71038;SDS011;58692;43.212;27.908;2023-05-01T11:50:19;5.80;;;2.30;;
71038;SDS011;58692;43.212;27.908;2023-05-01T11:52:48;4.82;;;1.80;;
71038;SDS011;58692;43.212;27.908;2023-05-01T11:55:17;6.97;;;2.40;;
71038;SDS011;58692;43.212;27.908;2023-05-01T11:57:44;6.60;;;2.45;;
71038;SDS011;58692;43.212;27.908;2023-05-01T12:00:12;6.68;;;2.40;;
71038;SDS011;58692;43.212;27.908;2023-05-01T12:02:39;4.50;;;2.30;;
71038;SDS011;58692;43.212;27.908;2023-05-01T12:07:47;5.78;;;2.10;;
71038;SDS011;58692;43.212;27.908;2023-05-01T12:10:12;4.77;;;2.00;;
71038;SDS011;58692;43.212;27.908;2023-05-01T12:12:40;6.03;;;2.22;;
71038;SDS011;58692;43.212;27.908;2023-05-01T12:15:05;8.27;;;2.20;;
71038;SDS011;58692;43.212;27.908;2023-05-01T12:17:31;8.43;;;2.00;;
71038;SDS011;58692;43.212;27.908;2023-05-01T12:19:57;4.87;;;2.10;;
71038;SDS011;58692;43.212;27.908;2023-05-01T12:22:23;7.32;;;2.15;;
71038;SDS011;58692;43.212;27.908;2023-05-01T12:24:50;4.30;;;1.90;;
71038;SDS011;58692;43.212;27.908;2023-05-01T12:27:16;6.40;;;2.13;;
71038;SDS011;58692;43.212;27.908;2023-05-01T12:29:43;7.72;;;2.38;;
71038;SDS011;58692;43.212;27.908;2023-05-01T12:32:11;4.82;;;1.90;;
71038;SDS011;58692;43.212;27.908;2023-05-01T12:34:37;5.32;;;2.00;;
71038;SDS011;58692;43.212;27.908;2023-05-01T12:37:04;5.80;;;2.05;;
71038;SDS011;58692;43.212;27.908;2023-05-01T12:39:38;3.50;;;2.07;;
71038;SDS011;58692;43.212;27.908;2023-05-01T12:42:13;5.20;;;1.80;;
71038;SDS011;58692;43.212;27.908;2023-05-01T12:44:40;3.97;;;1.85;;
71038;SDS011;58692;43.212;27.908;2023-05-01T12:47:08;6.97;;;2.03;;
71038;SDS011;58692;43.212;27.908;2023-05-01T12:49:34;6.17;;;2.10;;
71038;SDS011;58692;43.212;27.908;2023-05-01T12:52:01;6.65;;;2.00;;
71038;SDS011;58692;43.212;27.908;2023-05-01T12:54:30;3.67;;;1.90;;
71038;SDS011;58692;43.212;27.908;2023-05-01T12:57:04;4.88;;;2.00;;
71038;SDS011;58692;43.212;27.908;2023-05-01T12:59:30;5.40;;;2.00;;
71038;SDS011;58692;43.212;27.908;2023-05-01T13:01:57;4.43;;;2.07;;
71038;SDS011;58692;43.212;27.908;2023-05-01T13:04:24;4.70;;;2.17;;
71038;SDS011;58692;43.212;27.908;2023-05-01T13:06:51;8.82;;;2.05;;
71038;SDS011;58692;43.212;27.908;2023-05-01T13:09:21;4.47;;;2.42;;
71038;SDS011;58692;43.212;27.908;2023-05-01T13:17:10;4.80;;;1.95;;
71038;SDS011;58692;43.212;27.908;2023-05-01T13:19:37;5.63;;;2.30;;
71038;SDS011;58692;43.212;27.908;2023-05-01T13:22:03;4.75;;;1.80;;
71038;SDS011;58692;43.212;27.908;2023-05-01T13:27:10;4.45;;;1.85;;
71038;SDS011;58692;43.212;27.908;2023-05-01T13:29:37;5.72;;;2.10;;
71038;SDS011;58692;43.212;27.908;2023-05-01T13:32:03;5.68;;;2.50;;
71038;SDS011;58692;43.212;27.908;2023-05-01T13:34:30;5.07;;;1.98;;
71038;SDS011;58692;43.212;27.908;2023-05-01T13:36:57;6.43;;;2.20;;
71038;SDS011;58692;43.212;27.908;2023-05-01T13:39:23;6.43;;;2.10;;
71038;SDS011;58692;43.212;27.908;2023-05-01T13:41:50;5.05;;;2.30;;
71038;SDS011;58692;43.212;27.908;2023-05-01T13:44:16;5.88;;;2.40;;
71038;SDS011;58692;43.212;27.908;2023-05-01T13:46:43;5.38;;;2.20;;
71038;SDS011;58692;43.212;27.908;2023-05-01T13:49:09;4.93;;;2.00;;
71038;SDS011;58692;43.212;27.908;2023-05-01T13:51:35;7.10;;;2.60;;
71038;SDS011;58692;43.212;27.908;2023-05-01T13:54:06;5.00;;;2.20;;
71038;SDS011;58692;43.212;27.908;2023-05-01T13:56:33;5.93;;;2.37;;
71038;SDS011;58692;43.212;27.908;2023-05-01T13:59:01;7.60;;;2.47;;
71038;SDS011;58692;43.212;27.908;2023-05-01T14:01:27;5.93;;;2.30;;
71038;SDS011;58692;43.212;27.908;2023-05-01T14:03:54;7.90;;;2.50;;
71038;SDS011;58692;43.212;27.908;2023-05-01T14:06:22;5.30;;;2.47;;
71038;SDS011;58692;43.212;27.908;2023-05-01T14:08:49;7.05;;;2.42;;
71038;SDS011;58692;43.212;27.908;2023-05-01T14:11:15;6.78;;;2.50;;
71038;SDS011;58692;43.212;27.908;2023-05-01T14:13:41;5.47;;;2.10;;
71038;SDS011;58692;43.212;27.908;2023-05-01T14:16:09;6.78;;;2.17;;
71038;SDS011;58692;43.212;27.908;2023-05-01T14:18:42;5.18;;;2.58;;
71038;SDS011;58692;43.212;27.908;2023-05-01T14:21:09;4.30;;;2.40;;
71038;SDS011;58692;43.212;27.908;2023-05-01T14:23:35;6.00;;;2.80;;
71038;SDS011;58692;43.212;27.908;2023-05-01T14:26:01;7.93;;;3.07;;
71038;SDS011;58692;43.212;27.908;2023-05-01T14:28:27;6.78;;;2.65;;
71038;SDS011;58692;43.212;27.908;2023-05-01T14:30:54;5.53;;;2.70;;
71038;SDS011;58692;43.212;27.908;2023-05-01T14:33:20;5.60;;;2.70;;
71038;SDS011;58692;43.212;27.908;2023-05-01T14:35:47;7.00;;;2.83;;
71038;SDS011;58692;43.212;27.908;2023-05-01T14:38:15;6.05;;;2.92;;
71038;SDS011;58692;43.212;27.908;2023-05-01T14:40:42;8.02;;;3.00;;
71038;SDS011;58692;43.212;27.908;2023-05-01T14:43:08;5.05;;;2.70;;
71038;SDS011;58692;43.212;27.908;2023-05-01T14:45:39;7.60;;;3.40;;
71038;SDS011;58692;43.212;27.908;2023-05-01T14:48:05;8.77;;;2.85;;
71038;SDS011;58692;43.212;27.908;2023-05-01T14:50:31;6.85;;;3.10;;
71038;SDS011;58692;43.212;27.908;2023-05-01T14:52:57;10.93;;;3.50;;
71038;SDS011;58692;43.212;27.908;2023-05-01T14:55:26;6.70;;;3.05;;
71038;SDS011;58692;43.212;27.908;2023-05-01T14:57:55;6.93;;;3.13;;
71038;SDS011;58692;43.212;27.908;2023-05-01T15:00:21;6.00;;;2.80;;
71038;SDS011;58692;43.212;27.908;2023-05-01T15:02:47;5.72;;;2.75;;
71038;SDS011;58692;43.212;27.908;2023-05-01T15:05:13;7.45;;;2.55;;
71038;SDS011;58692;43.212;27.908;2023-05-01T15:07:39;8.57;;;3.00;;
71038;SDS011;58692;43.212;27.908;2023-05-01T15:10:06;7.28;;;2.72;;
71038;SDS011;58692;43.212;27.908;2023-05-01T15:12:32;7.65;;;2.78;;
71038;SDS011;58692;43.212;27.908;2023-05-01T15:14:57;7.30;;;2.77;;